sensor_id;sensor_type;location;lat;lon;timestamp;P1;durP1;ratioP1;P2;durP2;ratioP2
74371;SDS011;62885;51.374;6.170;2023-12-07T00:01:03;17.60;;;10.52;;
74371;SDS011;62885;51.374;6.170;2023-12-07T00:03:28;17.05;;;10.45;;
74371;SDS011;62885;51.374;6.170;2023-12-07T00:05:53;16.52;;;9.95;;
74371;SDS011;62885;51.374;6.170;2023-12-07T00:08:19;16.77;;;10.45;;
74371;SDS011;62885;51.374;6.170;2023-12-07T00:10:44;17.45;;;11.13;;
74371;SDS011;62885;51.374;6.170;2023-12-07T00:13:10;16.98;;;9.82;;
74371;SDS011;62885;51.374;6.170;2023-12-07T00:15:36;18.40;;;10.35;;
74371;SDS011;62885;51.374;6.170;2023-12-07T00:18:01;17.45;;;9.90;;
74371;SDS011;62885;51.374;6.170;2023-12-07T00:20:28;17.73;;;11.43;;
74371;SDS011;62885;51.374;6.170;2023-12-07T00:22:53;17.25;;;10.77;;
74371;SDS011;62885;51.374;6.170;2023-12-07T00:25:19;19.58;;;11.02;;
74371;SDS011;62885;51.374;6.170;2023-12-07T00:27:44;17.42;;;11.07;;
74371;SDS011;62885;51.374;6.170;2023-12-07T00:30:10;17.85;;;11.45;;
74371;SDS011;62885;51.374;6.170;2023-12-07T00:32:36;14.38;;;9.65;;
74371;SDS011;62885;51.374;6.170;2023-12-07T00:35:01;19.05;;;10.30;;
74371;SDS011;62885;51.374;6.170;2023-12-07T00:37:26;14.00;;;9.75;;
74371;SDS011;62885;51.374;6.170;2023-12-07T00:39:52;15.93;;;10.25;;
74371;SDS011;62885;51.374;6.170;2023-12-07T00:42:17;18.88;;;10.18;;
74371;SDS011;62885;51.374;6.170;2023-12-07T00:44:43;16.98;;;10.35;;
74371;SDS011;62885;51.374;6.170;2023-12-07T00:47:08;15.85;;;10.23;;
74371;SDS011;62885;51.374;6.170;2023-12-07T00:49:37;19.50;;;10.88;;
74371;SDS011;62885;51.374;6.170;2023-12-07T00:52:06;16.23;;;8.90;;
74371;SDS011;62885;51.374;6.170;2023-12-07T00:54:32;15.68;;;9.63;;
74371;SDS011;62885;51.374;6.170;2023-12-07T00:56:58;16.25;;;10.10;;
74371;SDS011;62885;51.374;6.170;2023-12-07T00:59:23;18.73;;;10.10;;
74371;SDS011;62885;51.374;6.170;2023-12-07T01:01:49;16.63;;;10.45;;
74371;SDS011;62885;51.374;6.170;2023-12-07T01:04:14;15.20;;;8.63;;
74371;SDS011;62885;51.374;6.170;2023-12-07T01:06:39;15.05;;;9.88;;
74371;SDS011;62885;51.374;6.170;2023-12-07T01:09:05;21.10;;;10.68;;
74371;SDS011;62885;51.374;6.170;2023-12-07T01:11:30;16.02;;;9.70;;
74371;SDS011;62885;51.374;6.170;2023-12-07T01:13:56;17.63;;;10.15;;
74371;SDS011;62885;51.374;6.170;2023-12-07T01:16:21;17.80;;;10.80;;
74371;SDS011;62885;51.374;6.170;2023-12-07T01:18:46;16.30;;;9.68;;
74371;SDS011;62885;51.374;6.170;2023-12-07T01:21:12;17.92;;;9.88;;
74371;SDS011;62885;51.374;6.170;2023-12-07T01:23:37;16.98;;;9.98;;
74371;SDS011;62885;51.374;6.170;2023-12-07T01:26:03;16.25;;;10.02;;
74371;SDS011;62885;51.374;6.170;2023-12-07T01:28:28;17.15;;;9.93;;
74371;SDS011;62885;51.374;6.170;2023-12-07T01:30:54;16.80;;;9.75;;
74371;SDS011;62885;51.374;6.170;2023-12-07T01:33:20;17.30;;;10.13;;
74371;SDS011;62885;51.374;6.170;2023-12-07T01:35:45;17.50;;;10.57;;
74371;SDS011;62885;51.374;6.170;2023-12-07T01:38:10;14.75;;;9.13;;
74371;SDS011;62885;51.374;6.170;2023-12-07T01:40:36;16.90;;;9.70;;
74371;SDS011;62885;51.374;6.170;2023-12-07T01:43:01;17.92;;;10.52;;
74371;SDS011;62885;51.374;6.170;2023-12-07T01:45:27;15.68;;;9.05;;
74371;SDS011;62885;51.374;6.170;2023-12-07T01:47:52;17.85;;;10.38;;
74371;SDS011;62885;51.374;6.170;2023-12-07T01:50:21;19.70;;;10.30;;
74371;SDS011;62885;51.374;6.170;2023-12-07T01:52:49;19.02;;;10.52;;
74371;SDS011;62885;51.374;6.170;2023-12-07T01:55:17;15.75;;;9.65;;
74371;SDS011;62885;51.374;6.170;2023-12-07T01:57:44;17.42;;;11.05;;
74371;SDS011;62885;51.374;6.170;2023-12-07T02:00:10;15.57;;;10.13;;
74371;SDS011;62885;51.374;6.170;2023-12-07T02:02:37;14.68;;;8.77;;
74371;SDS011;62885;51.374;6.170;2023-12-07T02:05:04;17.48;;;10.20;;
74371;SDS011;62885;51.374;6.170;2023-12-07T02:07:30;15.93;;;9.98;;
74371;SDS011;62885;51.374;6.170;2023-12-07T02:09:56;19.85;;;10.27;;
74371;SDS011;62885;51.374;6.170;2023-12-07T02:12:23;18.20;;;9.98;;
74371;SDS011;62885;51.374;6.170;2023-12-07T02:14:49;18.35;;;11.23;;
74371;SDS011;62885;51.374;6.170;2023-12-07T02:23:07;16.60;;;9.32;;
74371;SDS011;62885;51.374;6.170;2023-12-07T02:25:40;15.80;;;10.30;;
74371;SDS011;62885;51.374;6.170;2023-12-07T02:28:13;16.85;;;10.05;;
74371;SDS011;62885;51.374;6.170;2023-12-07T02:30:38;21.08;;;10.85;;
74371;SDS011;62885;51.374;6.170;2023-12-07T02:33:03;16.88;;;10.02;;
74371;SDS011;62885;51.374;6.170;2023-12-07T02:35:30;19.20;;;11.65;;
74371;SDS011;62885;51.374;6.170;2023-12-07T02:37:56;16.77;;;10.10;;
74371;SDS011;62885;51.374;6.170;2023-12-07T02:40:26;17.30;;;10.68;;
74371;SDS011;62885;51.374;6.170;2023-12-07T02:42:53;18.13;;;9.98;;
74371;SDS011;62885;51.374;6.170;2023-12-07T02:45:20;17.52;;;9.27;;
74371;SDS011;62885;51.374;6.170;2023-12-07T02:47:45;20.75;;;9.88;;
74371;SDS011;62885;51.374;6.170;2023-12-07T02:50:12;17.70;;;9.38;;
74371;SDS011;62885;51.374;6.170;2023-12-07T02:52:38;32.30;;;11.10;;
74371;SDS011;62885;51.374;6.170;2023-12-07T02:55:04;25.40;;;10.98;;
74371;SDS011;62885;51.374;6.170;2023-12-07T02:57:30;19.63;;;10.05;;
74371;SDS011;62885;51.374;6.170;2023-12-07T02:59:58;55.75;;;11.65;;
74371;SDS011;62885;51.374;6.170;2023-12-07T03:02:24;26.67;;;11.70;;
74371;SDS011;62885;51.374;6.170;2023-12-07T03:04:49;18.70;;;10.60;;
74371;SDS011;62885;51.374;6.170;2023-12-07T03:07:14;21.02;;;9.90;;
74371;SDS011;62885;51.374;6.170;2023-12-07T03:09:40;19.38;;;10.90;;
74371;SDS011;62885;51.374;6.170;2023-12-07T03:12:06;33.53;;;11.23;;
74371;SDS011;62885;51.374;6.170;2023-12-07T03:14:31;17.65;;;9.95;;
74371;SDS011;62885;51.374;6.170;2023-12-07T03:16:57;20.92;;;10.48;;
74371;SDS011;62885;51.374;6.170;2023-12-07T03:19:22;19.92;;;11.07;;
74371;SDS011;62885;51.374;6.170;2023-12-07T03:21:47;18.67;;;11.02;;
74371;SDS011;62885;51.374;6.170;2023-12-07T03:24:13;26.40;;;9.95;;
74371;SDS011;62885;51.374;6.170;2023-12-07T03:26:38;20.92;;;10.55;;
74371;SDS011;62885;51.374;6.170;2023-12-07T03:29:04;19.33;;;10.00;;
74371;SDS011;62885;51.374;6.170;2023-12-07T03:31:29;17.85;;;9.65;;
74371;SDS011;62885;51.374;6.170;2023-12-07T03:33:55;27.38;;;9.80;;
74371;SDS011;62885;51.374;6.170;2023-12-07T03:36:21;43.58;;;10.77;;
74371;SDS011;62885;51.374;6.170;2023-12-07T03:38:47;20.05;;;10.02;;
74371;SDS011;62885;51.374;6.170;2023-12-07T03:41:13;17.80;;;9.18;;
74371;SDS011;62885;51.374;6.170;2023-12-07T03:43:39;38.50;;;11.80;;
74371;SDS011;62885;51.374;6.170;2023-12-07T03:46:04;21.13;;;9.45;;
74371;SDS011;62885;51.374;6.170;2023-12-07T03:48:31;39.30;;;12.18;;
74371;SDS011;62885;51.374;6.170;2023-12-07T03:50:57;26.85;;;10.88;;
74371;SDS011;62885;51.374;6.170;2023-12-07T03:53:22;19.63;;;9.85;;
74371;SDS011;62885;51.374;6.170;2023-12-07T03:55:47;20.33;;;10.70;;
74371;SDS011;62885;51.374;6.170;2023-12-07T03:58:13;23.20;;;10.10;;
74371;SDS011;62885;51.374;6.170;2023-12-07T04:00:39;20.48;;;10.95;;
74371;SDS011;62885;51.374;6.170;2023-12-07T04:03:04;22.75;;;9.50;;
74371;SDS011;62885;51.374;6.170;2023-12-07T04:05:30;18.67;;;10.57;;
74371;SDS011;62885;51.374;6.170;2023-12-07T04:07:55;18.45;;;10.40;;
74371;SDS011;62885;51.374;6.170;2023-12-07T04:10:21;16.25;;;9.95;;
74371;SDS011;62885;51.374;6.170;2023-12-07T04:12:46;27.77;;;8.90;;
74371;SDS011;62885;51.374;6.170;2023-12-07T04:15:12;17.30;;;9.77;;
74371;SDS011;62885;51.374;6.170;2023-12-07T04:17:38;19.02;;;9.32;;
74371;SDS011;62885;51.374;6.170;2023-12-07T04:20:03;20.48;;;9.55;;
74371;SDS011;62885;51.374;6.170;2023-12-07T04:22:30;53.97;;;8.60;;
74371;SDS011;62885;51.374;6.170;2023-12-07T04:24:56;18.38;;;10.00;;
74371;SDS011;62885;51.374;6.170;2023-12-07T04:27:21;23.00;;;10.10;;
74371;SDS011;62885;51.374;6.170;2023-12-07T04:29:46;22.42;;;9.50;;
74371;SDS011;62885;51.374;6.170;2023-12-07T04:32:12;16.40;;;9.10;;
74371;SDS011;62885;51.374;6.170;2023-12-07T04:34:37;17.60;;;9.13;;
74371;SDS011;62885;51.374;6.170;2023-12-07T04:37:03;15.98;;;8.13;;
74371;SDS011;62885;51.374;6.170;2023-12-07T04:39:28;15.40;;;8.50;;
74371;SDS011;62885;51.374;6.170;2023-12-07T04:41:54;15.48;;;8.98;;
74371;SDS011;62885;51.374;6.170;2023-12-07T04:44:19;27.77;;;9.60;;
74371;SDS011;62885;51.374;6.170;2023-12-07T04:46:44;16.45;;;7.55;;
74371;SDS011;62885;51.374;6.170;2023-12-07T04:49:10;19.67;;;7.45;;
74371;SDS011;62885;51.374;6.170;2023-12-07T04:51:35;32.13;;;8.13;;
74371;SDS011;62885;51.374;6.170;2023-12-07T04:54:01;16.70;;;7.70;;
74371;SDS011;62885;51.374;6.170;2023-12-07T04:56:27;21.13;;;7.93;;
74371;SDS011;62885;51.374;6.170;2023-12-07T04:58:52;18.30;;;7.70;;
74371;SDS011;62885;51.374;6.170;2023-12-07T05:01:17;40.08;;;8.10;;
74371;SDS011;62885;51.374;6.170;2023-12-07T05:03:44;32.45;;;8.32;;
74371;SDS011;62885;51.374;6.170;2023-12-07T05:06:09;16.73;;;8.70;;
74371;SDS011;62885;51.374;6.170;2023-12-07T05:08:35;16.90;;;8.00;;
74371;SDS011;62885;51.374;6.170;2023-12-07T05:11:00;25.88;;;8.45;;
74371;SDS011;62885;51.374;6.170;2023-12-07T05:13:25;17.00;;;7.82;;
74371;SDS011;62885;51.374;6.170;2023-12-07T05:15:51;18.88;;;8.48;;
74371;SDS011;62885;51.374;6.170;2023-12-07T05:18:16;19.23;;;8.13;;
74371;SDS011;62885;51.374;6.170;2023-12-07T05:20:41;19.52;;;8.98;;
74371;SDS011;62885;51.374;6.170;2023-12-07T05:23:08;38.08;;;9.73;;
74371;SDS011;62885;51.374;6.170;2023-12-07T05:25:33;19.23;;;9.68;;
74371;SDS011;62885;51.374;6.170;2023-12-07T05:27:58;24.02;;;9.52;;
74371;SDS011;62885;51.374;6.170;2023-12-07T05:30:24;23.00;;;8.70;;
74371;SDS011;62885;51.374;6.170;2023-12-07T05:32:49;21.90;;;9.20;;
74371;SDS011;62885;51.374;6.170;2023-12-07T05:35:15;20.98;;;9.95;;
74371;SDS011;62885;51.374;6.170;2023-12-07T05:37:41;28.90;;;9.93;;
74371;SDS011;62885;51.374;6.170;2023-12-07T05:40:06;26.75;;;10.02;;
74371;SDS011;62885;51.374;6.170;2023-12-07T05:42:32;23.52;;;9.40;;
74371;SDS011;62885;51.374;6.170;2023-12-07T05:44:58;23.73;;;9.85;;
74371;SDS011;62885;51.374;6.170;2023-12-07T05:47:24;21.80;;;9.00;;
74371;SDS011;62885;51.374;6.170;2023-12-07T05:49:49;44.70;;;12.60;;
74371;SDS011;62885;51.374;6.170;2023-12-07T05:52:15;40.15;;;11.15;;
74371;SDS011;62885;51.374;6.170;2023-12-07T05:54:40;34.05;;;11.80;;
74371;SDS011;62885;51.374;6.170;2023-12-07T05:57:11;21.52;;;9.82;;
74371;SDS011;62885;51.374;6.170;2023-12-07T05:59:37;22.55;;;10.25;;
74371;SDS011;62885;51.374;6.170;2023-12-07T06:02:03;23.63;;;10.15;;
74371;SDS011;62885;51.374;6.170;2023-12-07T06:04:29;24.08;;;11.00;;
74371;SDS011;62885;51.374;6.170;2023-12-07T06:06:55;41.88;;;12.02;;
74371;SDS011;62885;51.374;6.170;2023-12-07T06:09:20;26.70;;;11.38;;
74371;SDS011;62885;51.374;6.170;2023-12-07T06:11:46;26.17;;;9.10;;
74371;SDS011;62885;51.374;6.170;2023-12-07T06:14:11;42.13;;;10.30;;
74371;SDS011;62885;51.374;6.170;2023-12-07T06:16:37;29.55;;;10.68;;
74371;SDS011;62885;51.374;6.170;2023-12-07T06:19:02;27.45;;;12.18;;
74371;SDS011;62885;51.374;6.170;2023-12-07T06:21:28;37.83;;;17.73;;
74371;SDS011;62885;51.374;6.170;2023-12-07T06:23:55;27.85;;;14.02;;
74371;SDS011;62885;51.374;6.170;2023-12-07T06:26:21;30.20;;;9.85;;
74371;SDS011;62885;51.374;6.170;2023-12-07T06:28:46;39.72;;;9.57;;
74371;SDS011;62885;51.374;6.170;2023-12-07T06:31:12;25.38;;;10.02;;
74371;SDS011;62885;51.374;6.170;2023-12-07T06:33:44;24.98;;;9.45;;
74371;SDS011;62885;51.374;6.170;2023-12-07T06:36:10;25.40;;;10.57;;
74371;SDS011;62885;51.374;6.170;2023-12-07T06:38:36;21.10;;;9.82;;
74371;SDS011;62885;51.374;6.170;2023-12-07T06:41:01;22.35;;;10.95;;
74371;SDS011;62885;51.374;6.170;2023-12-07T06:43:26;21.65;;;9.93;;
74371;SDS011;62885;51.374;6.170;2023-12-07T06:45:52;30.17;;;9.48;;
74371;SDS011;62885;51.374;6.170;2023-12-07T06:48:17;32.20;;;10.30;;
74371;SDS011;62885;51.374;6.170;2023-12-07T06:50:43;62.40;;;10.82;;
74371;SDS011;62885;51.374;6.170;2023-12-07T06:53:08;38.25;;;11.10;;
74371;SDS011;62885;51.374;6.170;2023-12-07T06:55:34;28.92;;;12.25;;
74371;SDS011;62885;51.374;6.170;2023-12-07T06:57:59;29.70;;;12.68;;
74371;SDS011;62885;51.374;6.170;2023-12-07T07:00:24;26.70;;;12.77;;
74371;SDS011;62885;51.374;6.170;2023-12-07T07:02:50;28.63;;;11.48;;
74371;SDS011;62885;51.374;6.170;2023-12-07T07:05:15;34.97;;;12.85;;
74371;SDS011;62885;51.374;6.170;2023-12-07T07:07:41;39.08;;;13.18;;
74371;SDS011;62885;51.374;6.170;2023-12-07T07:10:06;31.80;;;15.00;;
74371;SDS011;62885;51.374;6.170;2023-12-07T07:12:34;32.38;;;13.93;;
74371;SDS011;62885;51.374;6.170;2023-12-07T07:15:00;32.97;;;13.18;;
74371;SDS011;62885;51.374;6.170;2023-12-07T07:17:26;30.33;;;12.73;;
74371;SDS011;62885;51.374;6.170;2023-12-07T07:19:51;31.42;;;12.65;;
74371;SDS011;62885;51.374;6.170;2023-12-07T07:22:17;24.02;;;10.98;;
74371;SDS011;62885;51.374;6.170;2023-12-07T07:24:42;29.45;;;10.57;;
74371;SDS011;62885;51.374;6.170;2023-12-07T07:27:07;34.90;;;15.27;;
74371;SDS011;62885;51.374;6.170;2023-12-07T07:29:33;24.63;;;12.00;;
74371;SDS011;62885;51.374;6.170;2023-12-07T07:31:58;19.70;;;8.93;;
74371;SDS011;62885;51.374;6.170;2023-12-07T07:34:23;25.75;;;10.05;;
74371;SDS011;62885;51.374;6.170;2023-12-07T07:36:50;24.38;;;10.10;;
74371;SDS011;62885;51.374;6.170;2023-12-07T07:39:15;22.00;;;9.80;;
74371;SDS011;62885;51.374;6.170;2023-12-07T07:41:41;19.30;;;9.43;;
74371;SDS011;62885;51.374;6.170;2023-12-07T07:44:06;22.60;;;9.52;;
74371;SDS011;62885;51.374;6.170;2023-12-07T07:46:31;20.92;;;8.95;;
74371;SDS011;62885;51.374;6.170;2023-12-07T07:48:57;20.73;;;9.73;;
74371;SDS011;62885;51.374;6.170;2023-12-07T07:51:22;22.33;;;8.93;;
74371;SDS011;62885;51.374;6.170;2023-12-07T07:53:50;22.00;;;9.35;;
74371;SDS011;62885;51.374;6.170;2023-12-07T07:56:15;22.42;;;9.45;;
74371;SDS011;62885;51.374;6.170;2023-12-07T07:58:40;21.13;;;9.18;;
74371;SDS011;62885;51.374;6.170;2023-12-07T08:01:06;24.60;;;9.10;;
74371;SDS011;62885;51.374;6.170;2023-12-07T08:03:32;20.95;;;10.07;;
74371;SDS011;62885;51.374;6.170;2023-12-07T08:05:57;19.13;;;9.65;;
74371;SDS011;62885;51.374;6.170;2023-12-07T08:08:22;19.58;;;8.68;;
74371;SDS011;62885;51.374;6.170;2023-12-07T08:10:48;20.40;;;10.05;;
74371;SDS011;62885;51.374;6.170;2023-12-07T08:13:13;20.58;;;9.65;;
74371;SDS011;62885;51.374;6.170;2023-12-07T08:15:38;20.95;;;9.63;;
74371;SDS011;62885;51.374;6.170;2023-12-07T08:18:04;21.35;;;9.55;;
74371;SDS011;62885;51.374;6.170;2023-12-07T08:20:30;21.08;;;11.43;;
74371;SDS011;62885;51.374;6.170;2023-12-07T08:22:55;18.77;;;9.57;;
74371;SDS011;62885;51.374;6.170;2023-12-07T08:25:21;17.95;;;8.85;;
74371;SDS011;62885;51.374;6.170;2023-12-07T08:27:46;19.08;;;8.55;;
74371;SDS011;62885;51.374;6.170;2023-12-07T08:30:12;20.67;;;8.95;;
74371;SDS011;62885;51.374;6.170;2023-12-07T08:32:38;19.98;;;9.52;;
74371;SDS011;62885;51.374;6.170;2023-12-07T08:35:04;21.33;;;9.00;;
74371;SDS011;62885;51.374;6.170;2023-12-07T08:37:31;22.98;;;9.73;;
74371;SDS011;62885;51.374;6.170;2023-12-07T08:39:57;19.45;;;10.73;;
74371;SDS011;62885;51.374;6.170;2023-12-07T08:42:23;18.50;;;9.38;;
74371;SDS011;62885;51.374;6.170;2023-12-07T08:44:48;19.67;;;8.82;;
74371;SDS011;62885;51.374;6.170;2023-12-07T08:47:13;17.08;;;8.70;;
74371;SDS011;62885;51.374;6.170;2023-12-07T08:49:39;15.27;;;7.35;;
74371;SDS011;62885;51.374;6.170;2023-12-07T08:52:04;22.40;;;11.02;;
74371;SDS011;62885;51.374;6.170;2023-12-07T08:54:31;19.73;;;9.70;;
74371;SDS011;62885;51.374;6.170;2023-12-07T08:56:56;23.98;;;10.27;;
74371;SDS011;62885;51.374;6.170;2023-12-07T08:59:22;19.83;;;8.90;;
74371;SDS011;62885;51.374;6.170;2023-12-07T09:01:47;19.83;;;8.25;;
74371;SDS011;62885;51.374;6.170;2023-12-07T09:04:12;18.35;;;8.60;;
74371;SDS011;62885;51.374;6.170;2023-12-07T09:06:38;21.30;;;9.98;;
74371;SDS011;62885;51.374;6.170;2023-12-07T09:09:03;22.83;;;12.65;;
74371;SDS011;62885;51.374;6.170;2023-12-07T09:11:32;20.88;;;10.30;;
74371;SDS011;62885;51.374;6.170;2023-12-07T09:13:57;20.30;;;9.63;;
74371;SDS011;62885;51.374;6.170;2023-12-07T09:16:23;23.42;;;11.25;;
74371;SDS011;62885;51.374;6.170;2023-12-07T09:18:49;19.42;;;9.52;;
74371;SDS011;62885;51.374;6.170;2023-12-07T09:21:15;18.85;;;9.68;;
74371;SDS011;62885;51.374;6.170;2023-12-07T09:23:42;22.17;;;9.48;;
74371;SDS011;62885;51.374;6.170;2023-12-07T09:26:08;21.85;;;10.15;;
74371;SDS011;62885;51.374;6.170;2023-12-07T09:28:33;17.38;;;9.25;;
74371;SDS011;62885;51.374;6.170;2023-12-07T09:30:59;20.40;;;10.90;;
74371;SDS011;62885;51.374;6.170;2023-12-07T09:33:24;29.10;;;13.68;;
74371;SDS011;62885;51.374;6.170;2023-12-07T09:35:50;29.88;;;12.30;;
74371;SDS011;62885;51.374;6.170;2023-12-07T09:38:16;20.98;;;10.45;;
74371;SDS011;62885;51.374;6.170;2023-12-07T09:40:42;21.90;;;9.68;;
74371;SDS011;62885;51.374;6.170;2023-12-07T09:43:07;25.83;;;11.18;;
74371;SDS011;62885;51.374;6.170;2023-12-07T09:45:32;24.88;;;11.27;;
74371;SDS011;62885;51.374;6.170;2023-12-07T09:47:59;21.40;;;9.27;;
74371;SDS011;62885;51.374;6.170;2023-12-07T09:50:25;25.15;;;11.30;;
74371;SDS011;62885;51.374;6.170;2023-12-07T09:53:02;23.20;;;11.00;;
74371;SDS011;62885;51.374;6.170;2023-12-07T09:55:28;21.98;;;9.80;;
74371;SDS011;62885;51.374;6.170;2023-12-07T09:57:53;26.00;;;11.90;;
74371;SDS011;62885;51.374;6.170;2023-12-07T10:00:22;23.33;;;11.70;;
74371;SDS011;62885;51.374;6.170;2023-12-07T10:02:50;27.10;;;10.75;;
74371;SDS011;62885;51.374;6.170;2023-12-07T10:05:16;23.08;;;10.85;;
74371;SDS011;62885;51.374;6.170;2023-12-07T10:07:45;26.67;;;12.18;;
74371;SDS011;62885;51.374;6.170;2023-12-07T10:10:15;27.70;;;10.90;;
74371;SDS011;62885;51.374;6.170;2023-12-07T10:15:15;26.05;;;10.63;;
74371;SDS011;62885;51.374;6.170;2023-12-07T10:20:17;23.20;;;10.65;;
74371;SDS011;62885;51.374;6.170;2023-12-07T10:22:44;23.75;;;10.82;;
74371;SDS011;62885;51.374;6.170;2023-12-07T10:25:11;23.15;;;9.60;;
74371;SDS011;62885;51.374;6.170;2023-12-07T10:27:41;18.88;;;7.93;;
74371;SDS011;62885;51.374;6.170;2023-12-07T10:30:10;18.17;;;8.40;;
74371;SDS011;62885;51.374;6.170;2023-12-07T10:32:37;23.27;;;10.00;;
74371;SDS011;62885;51.374;6.170;2023-12-07T10:35:05;20.85;;;9.93;;
74371;SDS011;62885;51.374;6.170;2023-12-07T10:37:32;21.65;;;9.30;;
74371;SDS011;62885;51.374;6.170;2023-12-07T10:40:00;19.23;;;8.70;;
74371;SDS011;62885;51.374;6.170;2023-12-07T10:42:26;23.35;;;9.05;;
74371;SDS011;62885;51.374;6.170;2023-12-07T10:44:57;19.42;;;9.20;;
74371;SDS011;62885;51.374;6.170;2023-12-07T10:49:54;14.82;;;6.68;;
74371;SDS011;62885;51.374;6.170;2023-12-07T10:52:24;19.60;;;8.15;;
74371;SDS011;62885;51.374;6.170;2023-12-07T10:55:05;19.10;;;8.80;;
74371;SDS011;62885;51.374;6.170;2023-12-07T10:57:32;18.83;;;8.65;;
74371;SDS011;62885;51.374;6.170;2023-12-07T10:59:59;18.02;;;7.40;;
74371;SDS011;62885;51.374;6.170;2023-12-07T11:02:29;22.77;;;10.13;;
74371;SDS011;62885;51.374;6.170;2023-12-07T11:04:57;20.23;;;10.98;;
74371;SDS011;62885;51.374;6.170;2023-12-07T11:07:25;19.88;;;9.35;;
74371;SDS011;62885;51.374;6.170;2023-12-07T11:10:00;20.13;;;8.35;;
74371;SDS011;62885;51.374;6.170;2023-12-07T11:12:36;19.58;;;8.38;;
74371;SDS011;62885;51.374;6.170;2023-12-07T11:15:12;19.75;;;8.95;;
74371;SDS011;62885;51.374;6.170;2023-12-07T11:17:49;19.08;;;9.23;;
74371;SDS011;62885;51.374;6.170;2023-12-07T11:20:19;20.55;;;9.32;;
74371;SDS011;62885;51.374;6.170;2023-12-07T11:22:46;18.40;;;9.50;;
74371;SDS011;62885;51.374;6.170;2023-12-07T11:25:14;23.00;;;9.93;;
74371;SDS011;62885;51.374;6.170;2023-12-07T11:27:40;20.60;;;9.15;;
74371;SDS011;62885;51.374;6.170;2023-12-07T11:30:12;26.08;;;9.77;;
74371;SDS011;62885;51.374;6.170;2023-12-07T11:32:38;20.65;;;9.82;;
74371;SDS011;62885;51.374;6.170;2023-12-07T11:35:04;20.73;;;8.23;;
74371;SDS011;62885;51.374;6.170;2023-12-07T11:38:00;21.00;;;9.50;;
74371;SDS011;62885;51.374;6.170;2023-12-07T11:40:37;19.30;;;9.23;;
74371;SDS011;62885;51.374;6.170;2023-12-07T11:43:05;24.88;;;11.23;;
74371;SDS011;62885;51.374;6.170;2023-12-07T11:48:10;18.77;;;10.23;;
74371;SDS011;62885;51.374;6.170;2023-12-07T11:50:47;19.45;;;8.98;;
74371;SDS011;62885;51.374;6.170;2023-12-07T11:53:25;21.25;;;10.32;;
74371;SDS011;62885;51.374;6.170;2023-12-07T11:55:53;17.27;;;10.50;;
74371;SDS011;62885;51.374;6.170;2023-12-07T11:58:19;19.98;;;10.38;;
74371;SDS011;62885;51.374;6.170;2023-12-07T12:00:45;23.15;;;10.35;;
74371;SDS011;62885;51.374;6.170;2023-12-07T12:03:13;18.10;;;10.20;;
74371;SDS011;62885;51.374;6.170;2023-12-07T12:05:40;18.45;;;9.20;;
74371;SDS011;62885;51.374;6.170;2023-12-07T12:08:06;22.13;;;10.05;;
74371;SDS011;62885;51.374;6.170;2023-12-07T12:10:32;21.15;;;10.27;;
74371;SDS011;62885;51.374;6.170;2023-12-07T12:13:00;19.00;;;10.98;;
74371;SDS011;62885;51.374;6.170;2023-12-07T12:15:27;15.15;;;8.65;;
74371;SDS011;62885;51.374;6.170;2023-12-07T12:17:55;15.98;;;9.15;;
74371;SDS011;62885;51.374;6.170;2023-12-07T12:20:21;18.05;;;9.20;;
74371;SDS011;62885;51.374;6.170;2023-12-07T12:22:47;16.58;;;8.38;;
74371;SDS011;62885;51.374;6.170;2023-12-07T12:25:12;17.75;;;8.68;;
74371;SDS011;62885;51.374;6.170;2023-12-07T12:27:38;14.60;;;8.23;;
74371;SDS011;62885;51.374;6.170;2023-12-07T12:30:05;16.95;;;8.88;;
74371;SDS011;62885;51.374;6.170;2023-12-07T12:32:46;14.30;;;8.77;;
74371;SDS011;62885;51.374;6.170;2023-12-07T12:35:15;16.35;;;8.15;;
74371;SDS011;62885;51.374;6.170;2023-12-07T12:37:41;17.30;;;8.55;;
74371;SDS011;62885;51.374;6.170;2023-12-07T12:40:08;14.73;;;7.25;;
74371;SDS011;62885;51.374;6.170;2023-12-07T12:42:35;11.45;;;6.13;;
74371;SDS011;62885;51.374;6.170;2023-12-07T12:45:05;13.45;;;7.30;;
74371;SDS011;62885;51.374;6.170;2023-12-07T12:47:33;14.95;;;7.35;;
74371;SDS011;62885;51.374;6.170;2023-12-07T12:50:00;15.25;;;6.70;;
74371;SDS011;62885;51.374;6.170;2023-12-07T12:52:26;13.98;;;7.70;;
74371;SDS011;62885;51.374;6.170;2023-12-07T12:54:55;13.20;;;6.30;;
74371;SDS011;62885;51.374;6.170;2023-12-07T12:57:20;11.85;;;6.28;;
74371;SDS011;62885;51.374;6.170;2023-12-07T12:59:46;13.65;;;6.05;;
74371;SDS011;62885;51.374;6.170;2023-12-07T13:02:13;12.52;;;7.13;;
74371;SDS011;62885;51.374;6.170;2023-12-07T13:04:38;13.27;;;6.50;;
74371;SDS011;62885;51.374;6.170;2023-12-07T13:07:04;17.95;;;7.28;;
74371;SDS011;62885;51.374;6.170;2023-12-07T13:09:29;13.80;;;6.85;;
74371;SDS011;62885;51.374;6.170;2023-12-07T13:11:55;12.48;;;5.50;;
74371;SDS011;62885;51.374;6.170;2023-12-07T13:14:20;12.98;;;6.97;;
74371;SDS011;62885;51.374;6.170;2023-12-07T13:16:45;10.95;;;7.07;;
74371;SDS011;62885;51.374;6.170;2023-12-07T13:19:11;14.15;;;7.47;;
74371;SDS011;62885;51.374;6.170;2023-12-07T13:21:36;12.05;;;6.72;;
74371;SDS011;62885;51.374;6.170;2023-12-07T13:24:01;13.70;;;5.85;;
74371;SDS011;62885;51.374;6.170;2023-12-07T13:26:29;14.13;;;6.68;;
74371;SDS011;62885;51.374;6.170;2023-12-07T13:28:55;14.23;;;6.43;;
74371;SDS011;62885;51.374;6.170;2023-12-07T13:31:20;14.40;;;6.43;;
74371;SDS011;62885;51.374;6.170;2023-12-07T13:33:46;14.02;;;6.15;;
74371;SDS011;62885;51.374;6.170;2023-12-07T13:36:12;13.43;;;6.15;;
74371;SDS011;62885;51.374;6.170;2023-12-07T13:38:37;16.38;;;5.82;;
74371;SDS011;62885;51.374;6.170;2023-12-07T13:41:04;14.10;;;7.03;;
74371;SDS011;62885;51.374;6.170;2023-12-07T13:43:30;14.93;;;7.60;;
74371;SDS011;62885;51.374;6.170;2023-12-07T13:45:55;13.52;;;7.07;;
74371;SDS011;62885;51.374;6.170;2023-12-07T13:48:20;14.60;;;6.63;;
74371;SDS011;62885;51.374;6.170;2023-12-07T13:50:46;13.85;;;6.88;;
74371;SDS011;62885;51.374;6.170;2023-12-07T13:53:11;15.68;;;7.05;;
74371;SDS011;62885;51.374;6.170;2023-12-07T13:55:37;12.98;;;6.53;;
74371;SDS011;62885;51.374;6.170;2023-12-07T13:58:04;12.60;;;7.00;;
74371;SDS011;62885;51.374;6.170;2023-12-07T14:00:31;12.52;;;6.97;;
74371;SDS011;62885;51.374;6.170;2023-12-07T14:02:57;13.25;;;6.40;;
74371;SDS011;62885;51.374;6.170;2023-12-07T14:05:22;12.15;;;7.82;;
74371;SDS011;62885;51.374;6.170;2023-12-07T14:07:49;11.95;;;6.95;;
74371;SDS011;62885;51.374;6.170;2023-12-07T14:10:15;16.17;;;7.07;;
74371;SDS011;62885;51.374;6.170;2023-12-07T14:12:40;11.52;;;6.63;;
74371;SDS011;62885;51.374;6.170;2023-12-07T14:15:06;13.43;;;7.63;;
74371;SDS011;62885;51.374;6.170;2023-12-07T14:17:34;17.73;;;7.47;;
74371;SDS011;62885;51.374;6.170;2023-12-07T14:20:06;13.20;;;6.75;;
74371;SDS011;62885;51.374;6.170;2023-12-07T14:22:32;16.10;;;8.45;;
74371;SDS011;62885;51.374;6.170;2023-12-07T14:24:58;13.93;;;7.75;;
74371;SDS011;62885;51.374;6.170;2023-12-07T14:27:23;15.20;;;6.70;;
74371;SDS011;62885;51.374;6.170;2023-12-07T14:29:49;14.30;;;6.90;;
74371;SDS011;62885;51.374;6.170;2023-12-07T14:32:15;19.38;;;7.97;;
74371;SDS011;62885;51.374;6.170;2023-12-07T14:34:40;14.52;;;7.53;;
74371;SDS011;62885;51.374;6.170;2023-12-07T14:37:06;16.42;;;7.53;;
74371;SDS011;62885;51.374;6.170;2023-12-07T14:39:33;14.48;;;6.40;;